LFSM

Montbéliard-Courcelles Airport

Airport
ICAO code
LFSM
Summary
ICAO Region
EUR
ICAO Territory
Location

, Franche-Comte

Serving
Montbeliard
Elevation
1041 ft
Coordinates
47° 29' 13" N , 6° 47' 26" E
Metar
LFSM 160830Z AUTO 24013KT 9999 SCT023 SCT030 BKN043 07/04 Q1014

Runways

Designator Length Width Surface Rops
8/26 1700 20 ASP No/No

Airport map

Aerial View

SKYbrary Partners:

Safety knowledge contributed by: